Tupelo Regional Airport
KTUP : now visible

Airfield :











YOU CAN JOIN US ON...

 
LOGIN :

Register | Disclaimer

   EN    FR    IT 

 









Legend :    VFR   Marginal VFR   IFR   Intensive IFR   Very Intensive IFR
Visi :
Ceiling :
>= 8 km
>= 3000ft
5 to 8 km
1000 to 3000 ft
1500m to 5 km
500 to 1000 ft
800 to 1500m
200 to 500 ft
< 800m
< 200 ft
Symbols :   Thunderstorms  Fog  Heavy snow  Heavy precipitations  Wind > 20 kt







- Airport Elevation : 346 ft
- IATA code : TUP


KTUP - Tupelo Regional

CURRENT METAR :
  • 202353Z 16006KT 10SM CLR 29/18 A2992 RMK AO2 SLP125 T02940178 10311 20283 58020

EXPIRED METARs :
  • 202253Z VRB03KT 10SM CLR 31/18 A2994 RMK AO2 SLP135 T03060183
  • 202153Z VRB05KT 10SM FEW045 31/19 A2996 RMK AO2 SLP142 T03060189

TAF KTUP
Valid from the 21 at 00:00 until the 22 at 00:00 UTC


202327Z 2100/2124 16006KT P6SM SCT250
FM211500 20014G20KT P6SM SCT050 BKN250
KZME FIR / North America



MET'MAP, your aeronautical weather chart ! - Copyright ORBIFLY December 2007 - Disclaimer

ORBIFLY MET'MAP TEAM :

Programming & Development : Alexandra Zaïnal
Concept & Development : Baudouin d'Aumeries
Co-Development & Prog : Marc-Olivier Méhu
Technical & hardware support : Manuel Goepfert

Contact : metmap@orbifly.com




SOURCES & CREDITS :

   NOAA       Earth
Advisory